Time;durP1;ratioP1;P1;durP2;ratioP2;P2;SDS_P1;SDS_P2;PMS_P1;PMS_P2;Temp;Humidity;BMP_temperature;BMP_pressure;BME280_temperature;BME280_humidity;BME280_pressure;Samples;Min_cycle;Max_cycle;Signal;HPM_P1;HPM_P2
2023/02/01 06:54:49;;;;;;;9.73;2.50;;;;;;;;;;10507047;28;20838;-85
2023/02/01 06:59:50;;;;;;;8.18;2.08;;;;;;;;;;10503347;28;20025;-86
2023/02/01 07:04:51;;;;;;;11.25;2.80;;;;;;;;;;10509265;28;20044;-86
2023/02/01 07:09:52;;;;;;;10.30;2.78;;;;;;;;;;10518345;28;20025;-86
2023/02/01 07:14:53;;;;;;;16.13;3.38;;;;;;;;;;10519164;28;20046;-86
2023/02/01 07:19:54;;;;;;;17.00;3.22;;;;;;;;;;10506717;28;20033;-85
2023/02/01 07:24:55;;;;;;;12.15;3.08;;;;;;;;;;10497950;28;20390;-85
2023/02/01 07:29:59;;;;;;;11.43;3.45;;;;;;;;;;10498211;28;20027;-85
2023/02/01 07:35:00;;;;;;;10.43;3.00;;;;;;;;;;10498967;28;20045;-85
2023/02/01 07:40:01;;;;;;;12.25;4.15;;;;;;;;;;10499079;28;20048;-85
2023/02/01 07:45:03;;;;;;;10.23;2.80;;;;;;;;;;10499522;28;20501;-85
2023/02/01 07:50:07;;;;;;;11.77;3.67;;;;;;;;;;10500890;28;20116;-85
2023/02/01 07:55:09;;;;;;;13.05;3.03;;;;;;;;;;10501423;28;20037;-85
2023/02/01 08:05:29;;;;;;;7.95;1.98;;;;;;;;;;10485260;28;19948;-80
2023/02/01 08:10:30;;;;;;;9.48;2.63;;;;;;;;;;10472952;28;20053;-80
2023/02/01 08:15:31;;;;;;;9.27;2.60;;;;;;;;;;10469058;28;20039;-80
2023/02/01 08:20:35;;;;;;;10.10;2.80;;;;;;;;;;10472810;28;20037;-80
2023/02/01 08:25:36;;;;;;;10.38;3.25;;;;;;;;;;10473792;28;20027;-82
2023/02/01 08:30:42;;;;;;;11.98;4.05;;;;;;;;;;10488154;28;20029;-82
2023/02/01 08:35:43;;;;;;;14.23;4.10;;;;;;;;;;10481459;28;20029;-81
2023/02/01 08:40:46;;;;;;;10.00;3.13;;;;;;;;;;10477004;28;20029;-82
2023/02/01 08:45:47;;;;;;;9.68;4.10;;;;;;;;;;10475034;28;20379;-82
2023/02/01 08:50:48;;;;;;;16.52;7.15;;;;;;;;;;10474699;28;20032;-82
2023/02/01 08:55:49;;;;;;;19.33;8.52;;;;;;;;;;10473224;28;20021;-82
2023/02/01 09:00:50;;;;;;;16.40;5.72;;;;;;;;;;10470908;28;20033;-82
2023/02/01 09:05:51;;;;;;;14.90;6.78;;;;;;;;;;10470804;28;20021;-82
2023/02/01 09:10:53;;;;;;;15.73;6.00;;;;;;;;;;10469179;28;20044;-82
2023/02/01 09:15:56;;;;;;;15.52;6.20;;;;;;;;;;10473590;28;20039;-81
2023/02/01 09:20:57;;;;;;;13.88;6.55;;;;;;;;;;10478133;28;20021;-80
2023/02/01 09:26:21;;;;;;;15.50;6.38;;;;;;;;;;10467636;28;20111;-81
2023/02/01 09:31:23;;;;;;;14.50;5.22;;;;;;;;;;10468778;28;20056;-80
2023/02/01 09:36:49;;;;;;;15.45;5.93;;;;;;;;;;10475325;28;20021;-79
2023/02/01 09:42:13;;;;;;;10.90;4.45;;;;;;;;;;10479293;28;20037;-80
2023/02/01 09:47:17;;;;;;;14.43;5.35;;;;;;;;;;10482354;28;20131;-81
2023/02/01 09:52:20;;;;;;;13.15;4.32;;;;;;;;;;10475928;28;20510;-81
2023/02/01 09:57:26;;;;;;;12.73;4.45;;;;;;;;;;10471996;28;20033;-82
2023/02/01 10:02:30;;;;;;;13.70;4.03;;;;;;;;;;10476422;28;20043;-79
2023/02/01 10:07:51;;;;;;;11.05;4.43;;;;;;;;;;10504307;28;20062;-82
2023/02/01 10:12:55;;;;;;;15.88;4.63;;;;;;;;;;10491976;28;20102;-81
2023/02/01 10:17:56;;;;;;;11.70;3.95;;;;;;;;;;10486788;28;20056;-81
2023/02/01 10:23:25;;;;;;;12.35;4.63;;;;;;;;;;10483917;28;20052;-80
2023/02/01 10:28:26;;;;;;;11.30;4.05;;;;;;;;;;10485205;28;20035;-80
2023/02/01 10:33:32;;;;;;;12.82;4.60;;;;;;;;;;10484396;28;20044;-80
2023/02/01 10:38:33;;;;;;;14.82;4.20;;;;;;;;;;10494151;28;20025;-81
2023/02/01 10:43:35;;;;;;;12.60;4.22;;;;;;;;;;10479440;28;20056;-82
2023/02/01 10:48:37;;;;;;;8.13;3.63;;;;;;;;;;10475828;28;20510;-81
2023/02/01 10:53:53;;;;;;;12.05;3.88;;;;;;;;;;10481340;28;20396;-81
2023/02/01 10:59:05;;;;;;;10.77;3.67;;;;;;;;;;10484976;28;20035;-80
2023/02/01 11:04:08;;;;;;;12.00;3.80;;;;;;;;;;10479728;28;20029;-81
2023/02/01 11:09:09;;;;;;;8.40;3.40;;;;;;;;;;10483283;28;20021;-80
2023/02/01 11:14:25;;;;;;;8.10;2.92;;;;;;;;;;10483042;28;20025;-81
2023/02/01 11:19:28;;;;;;;10.13;3.55;;;;;;;;;;10486971;28;20025;-82
2023/02/01 11:24:34;;;;;;;12.00;3.17;;;;;;;;;;10481006;28;20029;-82
2023/02/01 11:29:37;;;;;;;12.02;3.53;;;;;;;;;;10472241;28;20056;-81
2023/02/01 11:34:40;;;;;;;9.30;3.80;;;;;;;;;;10480353;28;20140;-80
2023/02/01 11:39:42;;;;;;;13.80;3.97;;;;;;;;;;10485793;28;20091;-82
2023/02/01 11:44:44;;;;;;;13.77;3.65;;;;;;;;;;10472527;28;20054;-80
2023/02/01 11:49:45;;;;;;;13.27;3.78;;;;;;;;;;10470923;28;20049;-81
2023/02/01 11:55:03;;;;;;;9.88;4.07;;;;;;;;;;10469703;28;20033;-80
2023/02/01 12:00:21;;;;;;;22.50;9.75;;;;;;;;;;10471189;28;20120;-81
2023/02/01 12:05:41;;;;;;;9.13;3.55;;;;;;;;;;10470393;28;20025;-80
2023/02/01 12:10:54;;;;;;;10.18;3.78;;;;;;;;;;10471145;28;20032;-81
2023/02/01 12:15:58;;;;;;;10.20;3.25;;;;;;;;;;10467297;28;20032;-80
2023/02/01 12:21:04;;;;;;;12.40;3.50;;;;;;;;;;10469135;28;20025;-79
2023/02/01 12:26:05;;;;;;;7.22;2.83;;;;;;;;;;10469771;28;20027;-81
2023/02/01 12:31:09;;;;;;;9.43;2.83;;;;;;;;;;10470675;28;20366;-80
2023/02/01 12:36:10;;;;;;;9.50;3.72;;;;;;;;;;10473553;28;20068;-79
2023/02/01 12:41:17;;;;;;;13.13;3.47;;;;;;;;;;10477830;28;20033;-80
2023/02/01 12:46:18;;;;;;;11.50;3.13;;;;;;;;;;10467040;28;20533;-81
2023/02/01 12:51:22;;;;;;;12.20;3.25;;;;;;;;;;10468561;28;20037;-81
2023/02/01 12:56:41;;;;;;;8.50;3.38;;;;;;;;;;10475502;28;20052;-80
2023/02/01 13:01:51;;;;;;;12.07;3.35;;;;;;;;;;10477344;28;20096;-80
2023/02/01 13:06:58;;;;;;;8.63;2.38;;;;;;;;;;10483318;28;20029;-81
2023/02/01 13:12:02;;;;;;;5.63;2.25;;;;;;;;;;10481633;28;20119;-79
2023/02/01 13:17:07;;;;;;;10.52;3.05;;;;;;;;;;10484278;28;20048;-81
2023/02/01 13:22:14;;;;;;;6.97;2.40;;;;;;;;;;10485311;28;20055;-79
2023/02/01 13:27:16;;;;;;;9.32;2.50;;;;;;;;;;10478999;28;20036;-79
2023/02/01 13:32:29;;;;;;;6.97;2.50;;;;;;;;;;10464465;28;20029;-80
2023/02/01 13:37:40;;;;;;;10.10;2.42;;;;;;;;;;10466762;28;20105;-81
2023/02/01 13:42:47;;;;;;;7.30;2.70;;;;;;;;;;10469862;28;20479;-81
2023/02/01 13:47:52;;;;;;;8.35;3.80;;;;;;;;;;10469392;28;20033;-80
2023/02/01 13:53:12;;;;;;;9.43;3.00;;;;;;;;;;10465915;28;20061;-80
2023/02/01 13:58:36;;;;;;;11.02;3.08;;;;;;;;;;10464936;28;20082;-81
2023/02/01 14:03:52;;;;;;;11.15;3.40;;;;;;;;;;10466493;28;20083;-81
2023/02/01 14:09:08;;;;;;;8.55;2.67;;;;;;;;;;10473483;28;20088;-81
2023/02/01 14:14:16;;;;;;;8.50;2.47;;;;;;;;;;10467519;28;20047;-80
2023/02/01 14:19:24;;;;;;;7.15;2.53;;;;;;;;;;10469211;28;20032;-81
2023/02/01 14:24:27;;;;;;;8.57;2.60;;;;;;;;;;10466616;28;20394;-85
2023/02/01 14:29:28;;;;;;;8.45;2.30;;;;;;;;;;10473733;28;20103;-82
2023/02/01 14:34:35;;;;;;;6.43;2.13;;;;;;;;;;10476503;28;20372;-82
2023/02/01 14:39:39;;;;;;;7.55;2.15;;;;;;;;;;10502876;28;20025;-81
2023/02/01 14:44:40;;;;;;;9.15;2.30;;;;;;;;;;10489351;28;20040;-82
2023/02/01 14:49:48;;;;;;;8.32;2.50;;;;;;;;;;10468715;28;20032;-81
2023/02/01 14:54:56;;;;;;;9.65;2.40;;;;;;;;;;10472469;28;20021;-81
2023/02/01 15:00:06;;;;;;;7.80;2.47;;;;;;;;;;10470757;28;20455;-83
2023/02/01 15:05:22;;;;;;;7.80;2.38;;;;;;;;;;10471301;28;20035;-79
2023/02/01 15:10:25;;;;;;;9.02;2.88;;;;;;;;;;10469954;28;20029;-78
2023/02/01 15:15:26;;;;;;;7.47;2.45;;;;;;;;;;10460146;28;20123;-80
2023/02/01 15:20:31;;;;;;;7.57;2.60;;;;;;;;;;10474990;28;20028;-81
2023/02/01 15:25:38;;;;;;;9.50;3.08;;;;;;;;;;10472845;28;20029;-81
2023/02/01 15:30:39;;;;;;;9.45;2.63;;;;;;;;;;10474779;28;20053;-81
2023/02/01 15:35:43;;;;;;;6.65;2.47;;;;;;;;;;10478280;28;20028;-83
2023/02/01 15:40:57;;;;;;;11.40;3.55;;;;;;;;;;10476886;28;20036;-82
2023/02/01 15:46:02;;;;;;;9.75;2.60;;;;;;;;;;10477645;28;20154;-83
2023/02/01 15:51:04;;;;;;;10.05;3.00;;;;;;;;;;10475107;28;20044;-82
2023/02/01 15:56:05;;;;;;;6.38;2.33;;;;;;;;;;10475012;28;20064;-79
2023/02/01 16:01:06;;;;;;;8.60;2.80;;;;;;;;;;10475743;28;20105;-85
2023/02/01 16:06:27;;;;;;;8.02;2.47;;;;;;;;;;10473242;28;20518;-81
2023/02/01 16:11:30;;;;;;;;;;;;;;;;;;10472144;28;20025;-80
2023/02/01 16:16:31;;;;;;;8.55;2.60;;;;;;;;;;10470390;28;20439;-81
2023/02/01 16:21:32;;;;;;;10.57;3.25;;;;;;;;;;10472182;28;20340;-81
2023/02/01 16:26:34;;;;;;;12.45;3.80;;;;;;;;;;10472005;28;20163;-82
2023/02/01 16:31:36;;;;;;;13.30;3.10;;;;;;;;;;10480669;28;20147;-81
2023/02/01 16:36:37;;;;;;;11.80;2.72;;;;;;;;;;10475326;28;20486;-82
2023/02/01 16:41:39;;;;;;;11.23;2.58;;;;;;;;;;10475236;28;20024;-83
2023/02/01 16:46:42;;;;;;;9.65;2.88;;;;;;;;;;10473343;28;20024;-82
2023/02/01 16:51:43;;;;;;;9.30;2.97;;;;;;;;;;10473422;28;20037;-82
2023/02/01 16:56:44;;;;;;;6.63;2.60;;;;;;;;;;10472853;28;20088;-81
2023/02/01 17:01:45;;;;;;;4.28;1.45;;;;;;;;;;10472364;28;20454;-81
2023/02/01 17:06:48;;;;;;;5.05;1.42;;;;;;;;;;10471900;28;20029;-81
2023/02/01 17:11:49;;;;;;;3.83;1.10;;;;;;;;;;10470859;28;20028;-81
2023/02/01 17:16:50;;;;;;;4.25;1.63;;;;;;;;;;10465551;28;20082;-81
2023/02/01 17:21:53;;;;;;;;;;;;;;;;;;10471758;28;20051;-79
2023/02/01 17:26:55;;;;;;;3.92;1.73;;;;;;;;;;10472159;28;19991;-82
2023/02/01 17:31:59;;;;;;;4.43;1.38;;;;;;;;;;10468658;28;20029;-82
2023/02/01 17:37:00;;;;;;;3.58;1.10;;;;;;;;;;10468605;28;20128;-82
2023/02/01 17:42:01;;;;;;;3.75;1.65;;;;;;;;;;10470385;28;20037;-82
2023/02/01 17:47:02;;;;;;;3.20;1.33;;;;;;;;;;10469163;28;20562;-82
2023/02/01 17:52:03;;;;;;;;;;;;;;;;;;10470359;28;20120;-82
2023/02/01 17:57:09;;;;;;;8.60;2.38;;;;;;;;;;10472480;28;19971;-83
2023/02/01 18:02:29;;;;;;;5.25;1.80;;;;;;;;;;10468801;28;20033;-83
2023/02/01 18:07:30;;;;;;;7.20;2.40;;;;;;;;;;10468478;28;20082;-82
2023/02/01 18:12:32;;;;;;;11.15;2.28;;;;;;;;;;10467866;28;20497;-82
2023/02/01 18:17:33;;;;;;;7.75;1.80;;;;;;;;;;10469143;28;20029;-82
2023/02/01 18:22:34;;;;;;;4.18;1.30;;;;;;;;;;10469981;28;20114;-82
2023/02/01 18:27:35;;;;;;;3.58;1.08;;;;;;;;;;10467146;28;20036;-82
2023/02/01 18:32:36;;;;;;;3.00;1.13;;;;;;;;;;10467119;28;20061;-82
2023/02/01 18:37:37;;;;;;;4.43;1.35;;;;;;;;;;10468492;28;20048;-82
2023/02/01 18:42:44;;;;;;;3.33;1.17;;;;;;;;;;10497866;22;20789;-85
2023/02/01 18:47:45;;;;;;;3.58;1.00;;;;;;;;;;10432682;28;20045;-85
2023/02/01 18:52:52;;;;;;;3.58;1.58;;;;;;;;;;10430768;28;20509;-84
2023/02/01 18:57:53;;;;;;;3.67;1.10;;;;;;;;;;10428892;28;20079;-85
2023/02/01 19:02:54;;;;;;;3.92;1.40;;;;;;;;;;10432096;28;20038;-85
2023/02/01 19:07:55;;;;;;;5.68;1.70;;;;;;;;;;10431737;28;20032;-85
2023/02/01 19:12:57;;;;;;;4.25;1.40;;;;;;;;;;10430561;28;20026;-85
2023/02/01 19:17:58;;;;;;;5.82;1.95;;;;;;;;;;10429431;28;20029;-85
2023/02/01 19:22:59;;;;;;;;;;;;;;;;;;10426583;28;20028;-85
2023/02/01 19:28:01;;;;;;;9.40;2.03;;;;;;;;;;10425347;28;19909;-85
2023/02/01 19:33:03;;;;;;;4.95;1.73;;;;;;;;;;10426750;28;20044;-85
2023/02/01 19:38:05;;;;;;;7.32;1.83;;;;;;;;;;10428878;28;20094;-84
2023/02/01 19:43:07;;;;;;;4.13;1.50;;;;;;;;;;10428719;28;20044;-88
2023/02/01 19:48:08;;;;;;;6.35;1.35;;;;;;;;;;10426423;28;20373;-88
2023/02/01 19:53:10;;;;;;;3.75;1.20;;;;;;;;;;10426777;28;20048;-88
2023/02/01 19:58:11;;;;;;;4.88;1.05;;;;;;;;;;10448214;28;20017;-86
2023/02/01 20:03:12;;;;;;;4.75;1.02;;;;;;;;;;10472026;28;20098;-86
2023/02/01 20:08:14;;;;;;;3.28;1.20;;;;;;;;;;10467622;28;20036;-84
2023/02/01 20:13:16;;;;;;;4.35;1.10;;;;;;;;;;10449607;28;20009;-85
2023/02/01 20:18:17;;;;;;;5.72;1.75;;;;;;;;;;10441937;28;20479;-86
